Time;durP1;ratioP1;P1;durP2;ratioP2;P2;SDS_P1;SDS_P2;PMS_P1;PMS_P2;Temp;Humidity;BMP_temperature;BMP_pressure;BME280_temperature;BME280_humidity;BME280_pressure;Samples;Min_cycle;Max_cycle;Signal;HPM_P1;HPM_P2
2023/09/19 00:01:08;;;;;;;3.35;0.98;;;14.70;99.90;;;;;;5133194;27;20121;-78
2023/09/19 00:03:38;;;;;;;4.30;1.00;;;14.70;99.90;;;;;;5150004;27;20107;-79
2023/09/19 00:06:05;;;;;;;4.63;1.27;;;14.70;99.90;;;;;;5136950;27;20407;-77
2023/09/19 00:08:33;;;;;;;2.60;1.00;;;14.70;99.90;;;;;;5154947;27;20035;-77
2023/09/19 00:11:03;;;;;;;4.22;1.13;;;14.60;99.90;;;;;;5136845;27;20050;-80
2023/09/19 00:13:30;;;;;;;3.42;1.10;;;14.60;99.90;;;;;;5155085;27;20398;-79
2023/09/19 00:15:58;;;;;;;4.47;1.17;;;14.50;99.90;;;;;;5154948;27;20043;-78
2023/09/19 00:18:28;;;;;;;3.70;1.20;;;14.40;99.90;;;;;;5135571;27;20475;-77
2023/09/19 00:20:57;;;;;;;2.28;0.82;;;14.30;99.90;;;;;;5136814;27;20363;-78
2023/09/19 00:23:24;;;;;;;2.03;1.00;;;14.20;99.90;;;;;;5154764;27;20038;-77
2023/09/19 00:25:51;;;;;;;3.33;0.85;;;14.10;99.90;;;;;;5155197;27;20130;-77
2023/09/19 00:28:18;;;;;;;2.92;0.90;;;14.00;99.90;;;;;;5154934;27;20055;-78
2023/09/19 00:30:44;;;;;;;5.20;1.08;;;13.90;99.90;;;;;;5136154;27;20078;-76
2023/09/19 00:33:15;;;;;;;1.70;0.80;;;13.80;99.90;;;;;;5154756;27;20089;-76
2023/09/19 00:35:50;;;;;;;3.08;0.90;;;13.70;99.90;;;;;;5153606;27;20046;-77
2023/09/19 00:38:18;;;;;;;2.90;1.02;;;13.70;99.90;;;;;;5154316;27;20035;-77
2023/09/19 00:40:46;;;;;;;3.13;1.23;;;13.60;99.90;;;;;;5154767;27;20127;-77
2023/09/19 00:43:12;;;;;;;2.33;1.20;;;13.50;99.90;;;;;;5154932;27;20089;-76
2023/09/19 00:45:42;;;;;;;4.38;1.08;;;13.50;99.90;;;;;;5154642;27;20042;-77
2023/09/19 00:48:09;;;;;;;4.28;0.90;;;13.50;99.90;;;;;;5154490;27;20039;-76
2023/09/19 00:50:35;;;;;;;1.42;0.70;;;13.40;99.90;;;;;;5154431;27;20091;-77
2023/09/19 00:53:09;;;;;;;4.20;1.08;;;13.40;99.90;;;;;;5136129;27;20467;-77
2023/09/19 00:55:37;;;;;;;3.30;0.93;;;13.30;99.90;;;;;;5154725;27;20100;-76
2023/09/19 00:58:03;;;;;;;3.22;1.00;;;13.30;99.90;;;;;;5154735;27;20403;-77
2023/09/19 01:00:30;;;;;;;5.30;1.23;;;13.30;99.90;;;;;;5154506;27;20039;-77
2023/09/19 01:02:56;;;;;;;6.05;1.20;;;13.30;99.90;;;;;;5137170;27;20526;-76
2023/09/19 01:05:23;;;;;;;4.38;1.40;;;13.30;99.90;;;;;;5158301;27;20074;-77
2023/09/19 01:07:49;;;;;;;3.90;1.23;;;13.30;99.90;;;;;;5139488;27;20070;-77
2023/09/19 01:10:20;;;;;;;3.35;1.20;;;13.30;99.90;;;;;;5159156;27;20475;-77
2023/09/19 01:13:13;;;;;;;4.70;1.30;;;13.40;99.90;;;;;;5158517;27;20437;-77
2023/09/19 01:16:01;;;;;;;5.75;1.40;;;13.40;99.90;;;;;;5158599;27;20043;-80
2023/09/19 01:18:45;;;;;;;4.82;1.45;;;13.50;99.90;;;;;;5133024;27;20057;-78
2023/09/19 01:21:18;;;;;;;4.40;1.20;;;13.50;99.90;;;;;;5140115;27;20451;-77
2023/09/19 01:23:50;;;;;;;3.10;1.40;;;13.50;99.90;;;;;;5158607;27;20099;-78
2023/09/19 01:26:50;;;;;;;4.18;1.50;;;13.50;99.90;;;;;;5158159;27;20086;-77
2023/09/19 01:29:44;;;;;;;7.22;1.45;;;13.60;99.90;;;;;;5140039;27;20047;-75
2023/09/19 01:32:14;;;;;;;4.10;1.40;;;13.60;99.90;;;;;;5154245;27;20055;-78
2023/09/19 01:34:54;;;;;;;5.80;1.50;;;13.60;99.90;;;;;;5157966;27;20043;-76
2023/09/19 01:37:25;;;;;;;4.45;1.63;;;13.60;99.90;;;;;;5157997;27;20050;-75
2023/09/19 01:40:18;;;;;;;4.53;1.42;;;13.60;99.90;;;;;;5158316;27;20095;-76
2023/09/19 01:43:01;;;;;;;4.75;1.35;;;13.50;99.90;;;;;;5139982;27;20053;-76
2023/09/19 01:45:48;;;;;;;4.60;1.42;;;13.50;99.90;;;;;;5158040;27;20042;-75
2023/09/19 01:48:23;;;;;;;4.90;1.60;;;13.40;99.90;;;;;;5158038;27;20062;-76
2023/09/19 01:51:03;;;;;;;5.78;1.67;;;13.40;99.90;;;;;;5157840;27;20070;-75
2023/09/19 01:53:56;;;;;;;6.63;2.08;;;13.50;99.90;;;;;;5157460;27;20042;-75
2023/09/19 01:56:51;;;;;;;4.53;1.58;;;13.50;99.90;;;;;;5158191;27;20053;-75
2023/09/19 01:59:24;;;;;;;5.97;1.60;;;13.50;99.90;;;;;;5157034;27;20054;-76
2023/09/19 02:01:53;;;;;;;6.85;1.88;;;13.50;99.90;;;;;;5130349;27;20088;-75
2023/09/19 02:04:18;;;;;;;4.90;2.03;;;13.40;99.90;;;;;;5148717;27;20049;-75
2023/09/19 02:06:47;;;;;;;4.63;1.63;;;13.50;99.90;;;;;;5157815;27;20051;-77
2023/09/19 02:09:14;;;;;;;6.40;1.73;;;13.50;99.90;;;;;;5157223;27;20502;-76
2023/09/19 02:11:41;;;;;;;3.80;2.00;;;13.50;99.90;;;;;;5157665;27;20035;-76
2023/09/19 02:14:08;;;;;;;5.97;1.63;;;13.40;99.90;;;;;;5156336;27;20044;-76
2023/09/19 02:16:34;;;;;;;5.85;1.63;;;13.40;99.90;;;;;;5157912;27;20046;-76
2023/09/19 02:19:00;;;;;;;5.75;1.77;;;13.50;99.90;;;;;;5157141;27;20122;-76
2023/09/19 02:21:29;;;;;;;3.88;1.73;;;13.50;99.90;;;;;;5138585;27;20113;-75
2023/09/19 02:23:55;;;;;;;5.97;1.80;;;13.50;99.90;;;;;;5157355;27;20079;-76
2023/09/19 02:26:21;;;;;;;3.63;1.58;;;13.40;99.90;;;;;;5157672;27;20047;-75
2023/09/19 02:28:47;;;;;;;3.83;1.60;;;13.40;99.90;;;;;;5156775;27;20046;-75
2023/09/19 02:31:13;;;;;;;5.18;1.70;;;13.30;99.90;;;;;;5138194;27;20510;-76
2023/09/19 02:33:39;;;;;;;6.13;1.52;;;13.40;99.90;;;;;;5138762;27;20058;-75
2023/09/19 02:36:05;;;;;;;5.18;1.67;;;13.40;99.90;;;;;;5138416;27;20042;-74
2023/09/19 02:38:30;;;;;;;3.15;1.38;;;13.40;99.90;;;;;;5138033;27;20108;-75
2023/09/19 02:40:56;;;;;;;5.28;1.73;;;13.40;99.90;;;;;;5157101;27;20050;-75
2023/09/19 02:43:23;;;;;;;5.30;2.05;;;13.40;99.90;;;;;;5156622;27;20062;-76
2023/09/19 02:45:49;;;;;;;4.47;1.83;;;13.30;99.90;;;;;;5138706;27;20049;-76
2023/09/19 02:48:16;;;;;;;4.55;1.65;;;13.40;99.90;;;;;;5156803;27;20050;-75
2023/09/19 02:50:42;;;;;;;5.13;1.70;;;13.30;99.90;;;;;;5156842;27;20050;-75
2023/09/19 02:53:12;;;;;;;7.07;1.60;;;13.30;99.90;;;;;;5156845;27;20047;-75
2023/09/19 02:55:40;;;;;;;4.15;1.60;;;13.30;99.90;;;;;;5150327;27;20046;-76
2023/09/19 02:58:11;;;;;;;3.15;1.48;;;13.30;99.90;;;;;;5138400;27;20042;-75
2023/09/19 03:00:37;;;;;;;4.10;1.60;;;13.30;99.90;;;;;;5134725;27;20046;-76
2023/09/19 03:03:03;;;;;;;4.75;1.73;;;13.20;99.90;;;;;;5151150;27;20083;-75
2023/09/19 03:05:32;;;;;;;5.93;1.88;;;13.20;99.90;;;;;;5156381;27;20388;-75
2023/09/19 03:08:00;;;;;;;7.15;2.00;;;13.20;99.90;;;;;;5155373;27;20039;-75
2023/09/19 03:10:27;;;;;;;4.53;1.73;;;13.20;99.90;;;;;;5156121;27;20054;-76
2023/09/19 03:12:54;;;;;;;5.45;1.67;;;13.20;99.90;;;;;;5156280;27;20050;-75
2023/09/19 03:15:21;;;;;;;4.38;1.63;;;13.20;99.90;;;;;;5156288;27;20042;-75
2023/09/19 03:17:48;;;;;;;3.33;1.40;;;13.10;99.90;;;;;;5156478;27;20459;-76
2023/09/19 03:20:17;;;;;;;3.17;1.58;;;13.10;99.90;;;;;;5137242;27;20398;-75
2023/09/19 03:22:46;;;;;;;5.30;1.52;;;13.10;99.90;;;;;;5137150;27;20035;-75
2023/09/19 03:25:12;;;;;;;2.95;1.33;;;13.10;99.90;;;;;;5152124;27;20616;-75
2023/09/19 03:27:39;;;;;;;3.80;1.20;;;13.10;99.90;;;;;;5154562;27;20073;-76
2023/09/19 03:30:08;;;;;;;4.43;1.40;;;13.10;99.90;;;;;;5154649;27;20082;-76
2023/09/19 03:32:43;;;;;;;4.53;1.30;;;13.10;99.90;;;;;;5155062;27;20054;-75
2023/09/19 03:35:11;;;;;;;5.80;1.77;;;13.10;99.90;;;;;;5137118;27;20042;-75
2023/09/19 03:37:36;;;;;;;4.55;1.40;;;13.10;99.90;;;;;;5155510;27;20046;-75
2023/09/19 03:40:04;;;;;;;2.95;1.20;;;13.10;99.90;;;;;;5155859;27;20070;-75
2023/09/19 03:42:31;;;;;;;4.70;1.83;;;13.20;99.90;;;;;;5155643;27;20047;-75
2023/09/19 03:44:57;;;;;;;4.70;1.27;;;13.10;99.90;;;;;;5155755;27;20137;-75
2023/09/19 03:47:23;;;;;;;5.43;1.60;;;13.20;99.90;;;;;;5155278;27;20107;-77
2023/09/19 03:49:48;;;;;;;3.60;1.40;;;13.20;99.90;;;;;;5155402;27;20050;-76
2023/09/19 03:52:15;;;;;;;3.65;1.40;;;13.30;99.90;;;;;;5155692;27;20053;-76
2023/09/19 03:54:41;;;;;;;3.42;1.60;;;13.40;99.90;;;;;;5156039;27;20042;-76
2023/09/19 03:57:07;;;;;;;4.72;1.60;;;13.40;99.90;;;;;;5155244;27;20051;-76
2023/09/19 03:59:33;;;;;;;3.20;1.50;;;13.40;99.90;;;;;;5155621;27;20033;-75
2023/09/19 04:01:59;;;;;;;3.80;1.60;;;13.40;99.90;;;;;;5155184;27;20038;-78
2023/09/19 04:04:25;;;;;;;4.35;1.40;;;13.50;99.90;;;;;;5136779;27;20151;-75
2023/09/19 04:06:51;;;;;;;5.32;1.50;;;13.50;99.90;;;;;;5155411;27;20054;-76
2023/09/19 04:09:17;;;;;;;6.03;1.73;;;13.50;99.90;;;;;;5155338;27;20108;-75
2023/09/19 04:11:42;;;;;;;4.40;1.55;;;13.50;99.90;;;;;;5136855;27;20039;-76
2023/09/19 04:14:08;;;;;;;7.47;1.60;;;13.60;99.90;;;;;;5155044;27;20113;-76
2023/09/19 04:16:34;;;;;;;3.33;1.50;;;13.60;99.90;;;;;;5155100;27;20106;-76
2023/09/19 04:18:59;;;;;;;5.80;1.95;;;13.60;99.90;;;;;;5154719;27;20035;-75
2023/09/19 04:21:26;;;;;;;7.75;1.70;;;13.70;99.90;;;;;;5154641;27;20078;-76
2023/09/19 04:23:52;;;;;;;3.25;1.33;;;13.70;99.90;;;;;;5136331;27;20057;-76
2023/09/19 04:26:18;;;;;;;4.18;1.80;;;13.70;99.90;;;;;;5133028;27;20043;-77
2023/09/19 04:28:44;;;;;;;5.20;1.75;;;13.70;99.90;;;;;;5147785;27;20047;-76
2023/09/19 04:31:11;;;;;;;5.65;1.70;;;13.70;99.90;;;;;;5118840;27;20090;-75
2023/09/19 04:33:37;;;;;;;6.38;2.03;;;13.70;99.90;;;;;;5154988;27;20047;-75
2023/09/19 04:36:05;;;;;;;5.80;1.70;;;13.70;99.90;;;;;;5154039;27;20058;-75
2023/09/19 04:38:31;;;;;;;4.28;1.60;;;13.60;99.90;;;;;;5147495;27;20035;-75
2023/09/19 04:41:00;;;;;;;2.50;1.50;;;13.60;99.90;;;;;;5154728;27;20047;-76
2023/09/19 04:43:26;;;;;;;5.80;1.77;;;13.60;99.90;;;;;;5154836;27;20398;-76
2023/09/19 04:45:55;;;;;;;3.17;1.75;;;13.60;99.90;;;;;;5136384;27;20045;-76
2023/09/19 04:48:24;;;;;;;6.32;1.80;;;13.60;99.90;;;;;;5154658;27;20039;-75
2023/09/19 04:50:50;;;;;;;5.13;1.60;;;13.60;99.90;;;;;;5135969;27;20046;-76
2023/09/19 04:53:17;;;;;;;9.73;2.47;;;13.60;99.90;;;;;;5155055;27;20043;-76
2023/09/19 04:55:43;;;;;;;5.47;1.65;;;13.60;99.90;;;;;;5154245;27;20134;-75
2023/09/19 04:58:08;;;;;;;6.65;2.20;;;13.60;99.90;;;;;;5136283;27;20070;-76
2023/09/19 05:00:35;;;;;;;5.97;1.98;;;13.70;99.90;;;;;;5135720;27;20046;-75
2023/09/19 05:03:00;;;;;;;7.88;1.90;;;13.70;99.90;;;;;;5154400;27;20085;-76
2023/09/19 05:05:26;;;;;;;8.50;2.15;;;13.80;99.90;;;;;;5154416;27;20078;-76
2023/09/19 05:07:55;;;;;;;4.07;1.30;;;13.80;99.90;;;;;;5154600;27;20043;-76
2023/09/19 05:10:21;;;;;;;5.57;1.90;;;13.80;99.90;;;;;;5112490;27;20044;-76
2023/09/19 05:12:48;;;;;;;4.93;1.90;;;13.80;99.90;;;;;;5154385;27;20065;-76
2023/09/19 05:15:17;;;;;;;6.68;1.80;;;13.70;99.90;;;;;;5154680;27;20042;-77
2023/09/19 05:17:50;;;;;;;5.32;2.00;;;13.80;99.90;;;;;;5153932;27;20510;-77
2023/09/19 05:20:24;;;;;;;6.57;1.50;;;13.70;99.90;;;;;;5140104;27;20065;-76
2023/09/19 05:22:57;;;;;;;5.60;1.92;;;13.80;99.90;;;;;;5137517;27;20447;-76
2023/09/19 05:25:23;;;;;;;5.63;1.50;;;13.80;99.90;;;;;;5154492;27;20047;-76
2023/09/19 05:27:50;;;;;;;4.32;1.63;;;13.80;99.90;;;;;;5154537;27;20104;-76
2023/09/19 05:30:16;;;;;;;5.07;1.70;;;13.80;99.90;;;;;;5154623;27;20107;-76
2023/09/19 05:32:43;;;;;;;7.57;1.83;;;13.80;99.90;;;;;;5153692;27;20051;-75
2023/09/19 05:35:09;;;;;;;5.03;1.75;;;13.70;99.90;;;;;;5154119;27;20051;-77
2023/09/19 05:37:36;;;;;;;7.07;1.63;;;13.70;99.90;;;;;;5153675;27;20363;-76
2023/09/19 05:40:06;;;;;;;7.38;1.90;;;13.70;99.90;;;;;;5153659;27;20042;-76
2023/09/19 05:42:32;;;;;;;5.05;1.70;;;13.60;99.90;;;;;;5154056;27;20187;-77
2023/09/19 05:44:58;;;;;;;4.22;1.60;;;13.60;99.90;;;;;;5154080;27;20547;-76
2023/09/19 05:47:24;;;;;;;5.20;1.77;;;13.50;99.90;;;;;;5135632;27;20463;-76
2023/09/19 05:49:50;;;;;;;4.80;1.50;;;13.50;99.90;;;;;;5157701;27;20039;-76
2023/09/19 05:52:17;;;;;;;5.25;1.80;;;13.50;99.90;;;;;;5158148;27;20049;-76
2023/09/19 05:54:43;;;;;;;4.82;1.35;;;13.50;99.90;;;;;;5139518;27;20082;-75
2023/09/19 05:57:12;;;;;;;4.63;1.45;;;13.40;99.90;;;;;;5157830;27;20130;-76
2023/09/19 05:59:39;;;;;;;5.10;1.30;;;13.50;99.90;;;;;;5144910;27;20391;-76
2023/09/19 06:02:06;;;;;;;6.07;1.58;;;13.50;99.90;;;;;;5157671;27;20082;-75
2023/09/19 06:04:32;;;;;;;8.50;1.90;;;13.40;99.90;;;;;;5135696;27;20055;-76
2023/09/19 06:06:58;;;;;;;6.78;2.13;;;13.40;99.90;;;;;;5152139;27;20038;-76
2023/09/19 06:09:24;;;;;;;5.03;1.50;;;13.40;99.90;;;;;;5157358;27;20030;-76
2023/09/19 06:11:49;;;;;;;5.07;1.88;;;13.40;99.90;;;;;;5135796;27;20065;-77
2023/09/19 06:14:17;;;;;;;5.97;1.40;;;13.50;99.90;;;;;;5125742;27;20031;-76
2023/09/19 06:16:43;;;;;;;8.25;1.77;;;13.50;99.90;;;;;;5149264;27;20054;-67
2023/09/19 06:19:09;;;;;;;6.43;2.00;;;13.50;99.90;;;;;;5157280;27;20034;-66
2023/09/19 06:21:36;;;;;;;6.25;1.95;;;13.50;99.90;;;;;;5157344;27;20050;-67
2023/09/19 06:24:02;;;;;;;4.53;1.60;;;13.60;99.90;;;;;;5157226;27;20038;-66
2023/09/19 06:26:29;;;;;;;3.15;1.65;;;13.60;99.90;;;;;;5157208;27;20078;-66
2023/09/19 06:28:55;;;;;;;7.50;2.03;;;13.60;99.90;;;;;;5157593;27;20085;-66
2023/09/19 06:31:22;;;;;;;5.25;1.55;;;13.70;99.90;;;;;;5156946;27;20045;-66
2023/09/19 06:33:48;;;;;;;5.55;1.77;;;13.80;99.90;;;;;;5157324;27;20076;-66
2023/09/19 06:36:15;;;;;;;4.07;1.40;;;13.80;99.90;;;;;;5154827;27;20046;-66
2023/09/19 06:38:40;;;;;;;6.45;2.00;;;13.90;99.90;;;;;;5156898;27;20039;-66
2023/09/19 06:41:09;;;;;;;6.13;1.60;;;14.00;99.90;;;;;;5156946;27;20046;-66
2023/09/19 06:43:35;;;;;;;4.32;1.60;;;14.00;99.90;;;;;;5156932;27;20387;-65
2023/09/19 06:46:01;;;;;;;6.90;1.50;;;14.00;99.90;;;;;;5156661;27;20038;-66
2023/09/19 06:48:29;;;;;;;4.88;1.38;;;13.90;99.90;;;;;;5156949;27;20046;-66
2023/09/19 06:50:55;;;;;;;5.78;2.22;;;13.90;99.90;;;;;;5156374;27;20046;-66
2023/09/19 06:53:23;;;;;;;4.30;1.50;;;13.80;99.90;;;;;;5156539;27;20051;-66
2023/09/19 06:55:53;;;;;;;4.82;1.73;;;13.80;99.90;;;;;;5156139;27;20394;-66
2023/09/19 06:58:20;;;;;;;4.35;1.52;;;13.70;99.90;;;;;;5156142;27;20043;-66
2023/09/19 07:00:46;;;;;;;4.75;1.55;;;13.70;99.90;;;;;;5156286;27;20118;-65
2023/09/19 07:03:16;;;;;;;4.80;1.70;;;13.70;99.90;;;;;;5156590;27;20125;-65
2023/09/19 07:05:42;;;;;;;4.53;1.73;;;13.60;99.90;;;;;;5148044;27;20046;-66
2023/09/19 07:08:10;;;;;;;5.80;1.73;;;13.60;99.90;;;;;;5138113;27;20078;-66
2023/09/19 07:10:36;;;;;;;4.60;1.67;;;13.70;99.90;;;;;;5133831;27;20047;-65
2023/09/19 07:13:06;;;;;;;6.00;1.83;;;13.80;99.90;;;;;;5154352;27;20048;-66
2023/09/19 07:15:38;;;;;;;5.78;1.58;;;13.90;99.90;;;;;;5156180;27;20088;-66
2023/09/19 07:18:04;;;;;;;6.20;1.60;;;14.10;99.90;;;;;;5145122;27;20399;-66
2023/09/19 07:20:32;;;;;;;6.00;1.73;;;14.20;99.90;;;;;;5154023;27;20042;-66
2023/09/19 07:23:01;;;;;;;6.05;1.73;;;14.30;99.90;;;;;;5152880;27;20043;-66
2023/09/19 07:25:30;;;;;;;5.20;1.75;;;14.40;99.90;;;;;;5134388;27;20034;-66
2023/09/19 07:28:00;;;;;;;6.63;1.70;;;14.40;99.90;;;;;;5155481;27;20402;-66
2023/09/19 07:30:26;;;;;;;4.57;1.50;;;14.40;99.90;;;;;;5149735;27;20042;-66
2023/09/19 07:32:52;;;;;;;5.80;2.00;;;14.50;99.90;;;;;;5134081;27;20078;-67
2023/09/19 07:35:19;;;;;;;6.07;1.60;;;14.50;99.90;;;;;;5153820;27;20055;-66
2023/09/19 07:37:49;;;;;;;6.53;1.98;;;14.50;99.90;;;;;;5155075;27;20042;-66
2023/09/19 07:40:15;;;;;;;5.95;1.73;;;14.60;99.90;;;;;;5154945;27;20051;-66
2023/09/19 07:42:41;;;;;;;4.68;1.83;;;14.60;99.90;;;;;;5154832;27;20485;-65
2023/09/19 07:45:08;;;;;;;6.88;1.98;;;14.60;99.90;;;;;;5155060;27;20498;-66
2023/09/19 07:47:36;;;;;;;4.65;1.83;;;14.70;99.90;;;;;;5154488;27;20057;-66
2023/09/19 07:50:02;;;;;;;4.00;1.70;;;14.60;99.90;;;;;;5155332;27;20042;-66
2023/09/19 07:52:29;;;;;;;5.43;1.83;;;14.60;99.90;;;;;;5150166;27;20049;-66
2023/09/19 07:54:54;;;;;;;5.35;1.42;;;14.60;99.90;;;;;;5154641;27;20045;-66
2023/09/19 07:57:20;;;;;;;7.60;1.73;;;14.70;99.90;;;;;;5154743;27;20042;-66
2023/09/19 07:59:46;;;;;;;4.68;1.45;;;14.70;99.90;;;;;;5155016;27;20039;-65
2023/09/19 08:02:18;;;;;;;3.80;1.40;;;14.90;99.90;;;;;;5152564;27;20065;-66
2023/09/19 08:04:46;;;;;;;6.90;1.55;;;15.00;99.90;;;;;;5154055;27;20046;-66
2023/09/19 08:07:13;;;;;;;5.90;1.90;;;15.10;99.90;;;;;;5149236;27;20051;-66
2023/09/19 08:09:39;;;;;;;4.93;1.50;;;15.20;99.90;;;;;;5126485;27;20038;-66
2023/09/19 08:12:10;;;;;;;5.35;1.38;;;15.30;99.90;;;;;;5144318;27;20181;-66
2023/09/19 08:14:37;;;;;;;4.82;1.42;;;15.40;99.90;;;;;;5154414;27;20103;-66
2023/09/19 08:17:02;;;;;;;4.95;1.45;;;15.50;99.90;;;;;;5151848;27;20433;-66
2023/09/19 08:19:29;;;;;;;6.80;1.67;;;15.50;99.90;;;;;;5137878;27;20031;-66
2023/09/19 08:21:58;;;;;;;5.95;2.13;;;15.50;99.90;;;;;;5133854;27;20103;-66
2023/09/19 08:24:28;;;;;;;5.55;1.95;;;15.50;99.90;;;;;;5133448;27;20404;-65
2023/09/19 08:26:57;;;;;;;5.72;1.67;;;15.50;99.90;;;;;;5135806;27;20050;-65
2023/09/19 08:29:27;;;;;;;5.95;1.40;;;15.60;99.90;;;;;;5145209;27;20479;-65
2023/09/19 08:31:56;;;;;;;8.02;1.58;;;15.60;99.90;;;;;;5143267;27;20051;-64
2023/09/19 08:34:26;;;;;;;4.32;1.40;;;15.60;99.90;;;;;;5137454;27;20079;-65
2023/09/19 08:36:56;;;;;;;6.63;1.85;;;15.60;99.90;;;;;;5133622;27;20120;-65
2023/09/19 08:39:25;;;;;;;5.05;1.58;;;15.60;99.90;;;;;;5151976;27;20046;-65
2023/09/19 08:41:59;;;;;;;7.22;2.20;;;15.70;99.90;;;;;;5135895;27;20051;-65
2023/09/19 08:44:25;;;;;;;6.85;2.00;;;15.70;99.90;;;;;;5154210;27;20049;-65
2023/09/19 08:46:54;;;;;;;8.90;1.63;;;15.80;99.90;;;;;;5135414;27;20059;-65
2023/09/19 08:49:33;;;;;;;4.75;1.90;;;15.80;99.90;;;;;;5135504;27;20051;-64
2023/09/19 08:52:19;;;;;;;6.15;1.73;;;16.00;99.90;;;;;;5154181;27;20121;-65
2023/09/19 08:54:48;;;;;;;5.53;1.80;;;16.00;99.90;;;;;;5135521;27;20042;-65
2023/09/19 08:57:21;;;;;;;7.68;1.92;;;16.00;99.90;;;;;;5153935;27;20039;-65
2023/09/19 08:59:50;;;;;;;11.13;2.50;;;16.10;99.90;;;;;;5154476;27;20091;-65
2023/09/19 09:02:19;;;;;;;7.72;1.80;;;16.10;99.90;;;;;;5154027;27;20112;-65
2023/09/19 09:04:47;;;;;;;7.72;1.88;;;16.20;99.90;;;;;;5153801;27;20487;-65
2023/09/19 09:07:13;;;;;;;5.25;2.08;;;16.20;99.90;;;;;;5154165;27;20398;-64
2023/09/19 09:09:42;;;;;;;6.40;2.33;;;16.20;99.90;;;;;;5135374;27;20058;-65
2023/09/19 09:12:17;;;;;;;5.68;2.38;;;16.20;99.90;;;;;;5152578;27;20046;-65
2023/09/19 09:14:48;;;;;;;8.98;2.30;;;16.20;99.90;;;;;;5114794;28;20498;-65
2023/09/19 09:17:15;;;;;;;6.95;1.95;;;16.20;99.90;;;;;;5140455;27;20095;-65
2023/09/19 09:19:42;;;;;;;9.40;2.17;;;16.20;99.90;;;;;;5135807;27;20155;-65
2023/09/19 09:22:09;;;;;;;6.93;2.10;;;16.30;99.90;;;;;;5155028;27;20038;-65
2023/09/19 09:24:38;;;;;;;6.35;2.05;;;16.40;99.90;;;;;;5139381;27;20492;-65
2023/09/19 09:27:08;;;;;;;6.50;1.92;;;16.40;99.90;;;;;;5138834;27;20053;-66
2023/09/19 09:30:07;;;;;;;8.35;2.63;;;16.50;99.90;;;;;;5157377;27;20049;-65
2023/09/19 09:32:36;;;;;;;6.57;1.98;;;16.80;99.90;;;;;;5142322;27;20058;-66
2023/09/19 09:35:09;;;;;;;7.82;2.22;;;16.80;99.90;;;;;;5157295;27;20538;-66
2023/09/19 09:37:38;;;;;;;8.95;2.03;;;16.90;99.90;;;;;;5154479;27;20046;-66
2023/09/19 09:42:40;;;;;;;8.32;1.92;;;16.90;99.90;;;;;;5137126;27;20043;-66
2023/09/19 09:48:18;;;;;;;8.05;1.83;;;17.20;99.90;;;;;;5119088;27;20043;-65
2023/09/19 09:53:45;;;;;;;6.45;1.98;;;17.30;99.90;;;;;;5136649;27;20054;-66
2023/09/19 09:56:13;;;;;;;6.85;2.00;;;17.20;99.90;;;;;;5120389;27;20180;-66
2023/09/19 09:58:56;;;;;;;6.30;1.45;;;17.20;99.90;;;;;;5136788;27;20412;-66
2023/09/19 10:01:26;;;;;;;5.57;1.80;;;17.20;99.90;;;;;;5136124;27;20093;-66
2023/09/19 10:03:57;;;;;;;4.93;1.77;;;17.30;99.90;;;;;;5136569;27;20125;-65
2023/09/19 10:09:16;;;;;;;4.85;1.73;;;17.50;99.90;;;;;;5136081;27;20396;-65
2023/09/19 10:11:47;;;;;;;5.95;1.80;;;17.60;99.90;;;;;;5142931;27;20058;-66
2023/09/19 10:14:15;;;;;;;4.43;1.75;;;17.70;99.90;;;;;;5156733;27;20138;-65
2023/09/19 10:16:48;;;;;;;4.88;1.70;;;17.70;99.90;;;;;;5154240;27;20551;-65
2023/09/19 10:19:37;;;;;;;6.85;2.15;;;17.70;99.90;;;;;;5135489;27;20500;-64
2023/09/19 10:22:04;;;;;;;4.80;1.77;;;17.70;99.90;;;;;;5123321;27;20426;-65
2023/09/19 10:24:33;;;;;;;5.63;1.88;;;17.70;99.90;;;;;;5136396;27;20051;-65
2023/09/19 10:27:00;;;;;;;6.25;1.40;;;17.60;99.90;;;;;;5136123;27;20100;-66
2023/09/19 10:29:29;;;;;;;4.40;1.70;;;17.50;99.90;;;;;;5134827;27;20108;-65
2023/09/19 10:31:58;;;;;;;4.78;1.67;;;17.60;99.90;;;;;;5148776;27;20047;-66
2023/09/19 10:34:25;;;;;;;6.88;1.95;;;17.70;99.90;;;;;;5139367;27;20155;-65
2023/09/19 10:36:52;;;;;;;3.72;1.67;;;17.60;99.90;;;;;;5134811;27;20039;-65
2023/09/19 10:39:19;;;;;;;4.80;1.83;;;17.70;99.90;;;;;;5153434;27;20118;-65
2023/09/19 10:41:54;;;;;;;7.43;1.55;;;17.80;99.90;;;;;;5156137;27;20058;-65
2023/09/19 10:44:25;;;;;;;7.07;1.85;;;18.00;99.90;;;;;;5155096;27;20501;-65
2023/09/19 10:46:52;;;;;;;4.38;1.63;;;18.00;99.90;;;;;;5138048;27;20050;-65
2023/09/19 10:49:20;;;;;;;4.40;1.77;;;17.90;99.90;;;;;;5155817;27;20103;-65
2023/09/19 10:51:49;;;;;;;5.20;1.67;;;17.80;99.90;;;;;;5155804;27;20043;-67
2023/09/19 10:54:26;;;;;;;8.73;1.40;;;17.70;99.90;;;;;;5155926;27;20043;-63
2023/09/19 10:56:53;;;;;;;9.63;2.33;;;17.60;99.90;;;;;;5156283;27;20050;-64
2023/09/19 10:59:24;;;;;;;6.22;2.08;;;17.60;99.90;;;;;;5154957;27;20520;-65
2023/09/19 11:01:57;;;;;;;4.50;1.70;;;17.70;99.90;;;;;;5137933;27;20046;-65
2023/09/19 11:04:36;;;;;;;7.60;1.90;;;17.80;99.90;;;;;;5146763;27;20043;-65
2023/09/19 11:07:16;;;;;;;3.30;1.60;;;18.00;99.90;;;;;;5139528;27;20126;-65
2023/09/19 11:09:53;;;;;;;2.95;1.60;;;18.10;99.90;;;;;;5135437;27;20480;-65
2023/09/19 11:12:45;;;;;;;4.43;1.70;;;18.00;99.90;;;;;;5146860;27;20124;-66
2023/09/19 11:15:49;;;;;;;4.88;1.45;;;17.90;99.90;;;;;;5155877;27;20051;-66
2023/09/19 11:18:40;;;;;;;5.00;1.50;;;17.80;99.90;;;;;;5139717;27;20066;-65
2023/09/19 11:21:33;;;;;;;3.95;1.60;;;17.80;99.90;;;;;;5134374;27;20053;-65
2023/09/19 11:24:24;;;;;;;5.53;1.83;;;17.80;99.90;;;;;;5134934;27;20043;-65
2023/09/19 11:26:51;;;;;;;6.38;1.60;;;17.90;99.90;;;;;;5134952;27;20047;-65
2023/09/19 11:29:33;;;;;;;4.80;1.58;;;17.90;99.90;;;;;;5133920;27;20075;-65
2023/09/19 11:32:02;;;;;;;6.68;1.83;;;18.10;99.90;;;;;;5148220;27;20059;-65
2023/09/19 11:34:37;;;;;;;5.15;2.00;;;18.10;99.90;;;;;;5124204;27;20159;-65
2023/09/19 11:37:23;;;;;;;4.20;1.83;;;18.10;99.90;;;;;;5133704;27;20424;-64
2023/09/19 11:40:09;;;;;;;6.32;1.60;;;18.10;99.90;;;;;;5132148;27;20091;-64
2023/09/19 11:42:45;;;;;;;6.45;1.65;;;18.00;99.90;;;;;;5155357;27;20047;-65
2023/09/19 11:45:50;;;;;;;6.97;1.90;;;17.90;99.90;;;;;;5154732;27;20557;-65
2023/09/19 11:48:18;;;;;;;6.97;1.50;;;17.90;99.90;;;;;;5148161;27;20050;-65
2023/09/19 11:50:47;;;;;;;4.45;1.42;;;18.10;99.90;;;;;;5144946;27;20047;-66
2023/09/19 11:53:13;;;;;;;6.55;1.65;;;18.20;99.90;;;;;;5145426;27;20495;-65
2023/09/19 11:55:43;;;;;;;6.05;1.45;;;18.30;99.90;;;;;;5145410;27;20130;-65
2023/09/19 11:58:09;;;;;;;4.45;1.52;;;18.40;99.90;;;;;;5144284;27;20042;-65
2023/09/19 12:00:41;;;;;;;4.90;1.60;;;18.40;99.90;;;;;;5143504;27;20468;-65
2023/09/19 12:03:11;;;;;;;5.53;1.73;;;18.40;99.90;;;;;;5145599;27;20221;-65
2023/09/19 12:05:39;;;;;;;7.18;1.58;;;18.40;99.90;;;;;;5143514;27;20126;-66
2023/09/19 12:08:08;;;;;;;8.18;1.38;;;18.30;99.90;;;;;;5127561;27;20091;-65
2023/09/19 12:10:50;;;;;;;5.28;1.50;;;18.30;99.90;;;;;;5143931;27;20420;-65
2023/09/19 12:13:18;;;;;;;3.70;1.48;;;18.40;99.90;;;;;;5124455;27;20102;-65
2023/09/19 12:15:47;;;;;;;5.68;1.67;;;18.40;99.90;;;;;;5145391;27;20047;-65
2023/09/19 12:18:29;;;;;;;5.50;1.55;;;18.40;99.90;;;;;;5144584;27;20483;-66
2023/09/19 12:20:57;;;;;;;4.65;1.38;;;18.20;99.90;;;;;;5143631;27;20391;-66
2023/09/19 12:23:23;;;;;;;5.07;1.45;;;18.10;99.90;;;;;;5126071;27;20071;-66
2023/09/19 12:25:53;;;;;;;6.20;1.50;;;18.00;99.90;;;;;;5143069;27;20118;-66
2023/09/19 12:28:22;;;;;;;5.38;1.63;;;18.00;99.90;;;;;;5145030;27;20031;-65
2023/09/19 12:30:48;;;;;;;4.45;1.30;;;18.10;99.90;;;;;;5143216;27;20050;-65
2023/09/19 12:33:25;;;;;;;4.05;1.40;;;18.10;99.90;;;;;;5126902;27;20494;-66
2023/09/19 12:35:53;;;;;;;5.05;1.65;;;18.20;99.90;;;;;;5143052;27;20104;-65
2023/09/19 12:38:35;;;;;;;6.38;1.80;;;18.30;99.90;;;;;;5146618;27;20034;-65
2023/09/19 12:41:02;;;;;;;3.28;1.30;;;18.50;99.90;;;;;;5149723;27;20053;-64
2023/09/19 12:43:32;;;;;;;5.00;1.42;;;18.50;99.90;;;;;;5144480;27;20051;-65
2023/09/19 12:45:59;;;;;;;5.22;2.13;;;18.40;99.90;;;;;;5142773;27;20449;-65
2023/09/19 12:48:29;;;;;;;3.78;1.20;;;18.30;99.90;;;;;;5126591;27;20123;-65
2023/09/19 12:51:06;;;;;;;4.72;1.40;;;18.20;99.90;;;;;;5141528;27;20050;-65
2023/09/19 12:53:43;;;;;;;7.18;1.80;;;18.30;99.90;;;;;;5145253;27;20043;-65
2023/09/19 12:56:17;;;;;;;4.97;1.50;;;18.30;99.90;;;;;;5126489;27;20079;-65
2023/09/19 12:58:58;;;;;;;6.22;1.75;;;18.30;99.90;;;;;;5152544;27;20117;-65
2023/09/19 13:01:27;;;;;;;5.50;1.73;;;18.30;99.90;;;;;;5160968;27;20047;-65
2023/09/19 13:04:25;;;;;;;5.85;1.88;;;18.20;99.90;;;;;;5146971;27;20164;-65
2023/09/19 13:06:51;;;;;;;5.80;1.92;;;18.20;99.90;;;;;;5127524;27;20443;-65
2023/09/19 13:09:20;;;;;;;3.88;1.52;;;18.20;99.90;;;;;;5156842;27;20046;-64
2023/09/19 13:11:47;;;;;;;5.75;1.25;;;18.30;99.90;;;;;;5156157;27;20043;-65
2023/09/19 13:14:23;;;;;;;4.65;1.50;;;18.30;99.90;;;;;;5140166;27;20050;-65